Time;durP1;ratioP1;P1;durP2;ratioP2;P2;SDS_P1;SDS_P2;PMS_P1;PMS_P2;Temp;Humidity;BMP_temperature;BMP_pressure;BME280_temperature;BME280_humidity;BME280_pressure;Samples;Min_cycle;Max_cycle;Signal;HPM_P1;HPM_P2
2022/04/25 00:00:11;;;;;;;18.05;8.32;;;;;;;;;;5050783;27;97398;-75
2022/04/25 00:02:38;;;;;;;17.10;8.75;;;;;;;;;;5051058;27;96587;-78
2022/04/25 00:05:04;;;;;;;17.52;8.95;;;;;;;;;;5046458;27;96751;-78
2022/04/25 00:07:31;;;;;;;14.60;8.93;;;;;;;;;;5049503;27;95315;-74
2022/04/25 00:09:57;;;;;;;14.40;9.07;;;;;;;;;;5053731;27;97030;-72
2022/04/25 00:12:23;;;;;;;18.05;9.52;;;;;;;;;;5053729;27;97861;-75
2022/04/25 00:14:50;;;;;;;23.38;9.70;;;;;;;;;;5054150;27;95721;-75
2022/04/25 00:17:16;;;;;;;19.00;9.13;;;;;;;;;;5055043;27;96611;-77
2022/04/25 00:19:42;;;;;;;17.05;9.07;;;;;;;;;;5055316;27;97277;-74
2022/04/25 00:22:09;;;;;;;15.10;8.77;;;;;;;;;;5053587;27;95147;-73
2022/04/25 00:24:35;;;;;;;15.85;8.75;;;;;;;;;;5041432;27;96799;-74
2022/04/25 00:27:01;;;;;;;14.25;9.07;;;;;;;;;;5057653;27;97349;-76
2022/04/25 00:29:28;;;;;;;17.85;9.02;;;;;;;;;;5054624;27;97177;-75
2022/04/25 00:31:57;;;;;;;18.80;8.40;;;;;;;;;;5054006;27;97482;-75
2022/04/25 00:34:23;;;;;;;15.43;9.35;;;;;;;;;;5052760;27;95332;-75
2022/04/25 00:36:49;;;;;;;15.85;9.43;;;;;;;;;;5052583;27;97128;-74
2022/04/25 00:39:16;;;;;;;22.08;9.70;;;;;;;;;;5046021;27;97343;-76
2022/04/25 00:41:43;;;;;;;13.05;9.02;;;;;;;;;;5049916;27;95584;-75
2022/04/25 00:44:09;;;;;;;14.75;9.63;;;;;;;;;;5054710;27;96132;-74
2022/04/25 00:46:36;;;;;;;17.95;9.77;;;;;;;;;;5052865;27;96209;-74
2022/04/25 00:49:02;;;;;;;17.52;9.48;;;;;;;;;;5057838;27;95316;-78
2022/04/25 00:51:29;;;;;;;18.20;9.80;;;;;;;;;;5053179;27;97867;-76
2022/04/25 00:53:55;;;;;;;15.85;9.50;;;;;;;;;;5054646;27;95212;-77
2022/04/25 00:56:22;;;;;;;18.05;9.90;;;;;;;;;;5051575;27;96734;-77
2022/04/25 00:58:49;;;;;;;17.60;10.00;;;;;;;;;;5055033;27;97339;-75
2022/04/25 01:01:15;;;;;;;15.80;8.98;;;;;;;;;;5053222;27;96803;-75
2022/04/25 01:03:42;;;;;;;18.08;10.07;;;;;;;;;;5054218;27;95790;-77
2022/04/25 01:06:08;;;;;;;17.77;9.68;;;;;;;;;;5052026;27;97282;-77
2022/04/25 01:08:37;;;;;;;21.67;9.90;;;;;;;;;;5054265;27;96062;-77
2022/04/25 01:11:04;;;;;;;27.73;10.98;;;;;;;;;;5057123;27;96804;-74
2022/04/25 01:13:31;;;;;;;15.43;8.90;;;;;;;;;;5045606;27;96653;-75
2022/04/25 01:15:57;;;;;;;22.65;10.45;;;;;;;;;;5053302;27;95757;-78
2022/04/25 01:18:26;;;;;;;20.42;10.02;;;;;;;;;;5052299;27;98064;-77
2022/04/25 01:20:54;;;;;;;19.70;9.48;;;;;;;;;;5053561;27;95461;-76
2022/04/25 01:28:51;;;;;;;18.42;9.43;;;;;;;;;;5054068;27;95329;-78
2022/04/25 01:31:18;;;;;;;19.35;10.68;;;;;;;;;;5051238;27;97129;-75
2022/04/25 01:33:44;;;;;;;20.88;10.02;;;;;;;;;;5056216;27;96584;-76
2022/04/25 01:36:11;;;;;;;24.48;10.98;;;;;;;;;;5040958;27;97098;-76
2022/04/25 01:38:37;;;;;;;21.75;10.68;;;;;;;;;;5051475;27;96119;-74
2022/04/25 01:41:04;;;;;;;20.33;10.48;;;;;;;;;;5053492;27;96764;-76
2022/04/25 01:43:34;;;;;;;17.13;10.05;;;;;;;;;;5052922;27;96775;-76
2022/04/25 01:46:00;;;;;;;18.80;10.32;;;;;;;;;;5053119;27;97337;-77
2022/04/25 01:48:27;;;;;;;20.25;10.32;;;;;;;;;;5050951;27;95593;-76
2022/04/25 01:50:53;;;;;;;17.02;10.57;;;;;;;;;;5053532;27;98329;-74
2022/04/25 01:53:19;;;;;;;18.42;10.63;;;;;;;;;;5053425;27;97283;-76
2022/04/25 01:55:46;;;;;;;22.30;10.63;;;;;;;;;;5044792;27;96149;-77
2022/04/25 01:58:12;;;;;;;23.80;11.13;;;;;;;;;;5053396;27;96860;-76
2022/04/25 02:00:38;;;;;;;19.98;10.98;;;;;;;;;;5051280;27;95989;-74
2022/04/25 02:03:08;;;;;;;22.85;10.98;;;;;;;;;;5050074;27;96952;-76
2022/04/25 02:05:34;;;;;;;16.70;9.68;;;;;;;;;;5039982;27;97281;-75
2022/04/25 02:08:02;;;;;;;19.05;10.60;;;;;;;;;;5053410;27;95380;-76
2022/04/25 02:10:28;;;;;;;20.25;10.98;;;;;;;;;;5051562;27;96705;-77
2022/04/25 02:12:55;;;;;;;19.95;10.23;;;;;;;;;;5050493;27;96341;-76
2022/04/25 02:15:21;;;;;;;22.73;11.25;;;;;;;;;;5047626;27;95159;-78
2022/04/25 02:17:48;;;;;;;21.35;11.15;;;;;;;;;;5053149;27;97398;-79
2022/04/25 02:20:14;;;;;;;18.85;10.80;;;;;;;;;;5051728;27;95354;-78
2022/04/25 02:22:40;;;;;;;28.20;11.30;;;;;;;;;;5049969;27;96820;-78
2022/04/25 02:25:07;;;;;;;21.60;11.70;;;;;;;;;;5051769;27;97214;-77
2022/04/25 02:27:33;;;;;;;21.73;11.07;;;;;;;;;;5052528;27;95397;-75
2022/04/25 02:30:00;;;;;;;20.98;11.52;;;;;;;;;;5035315;27;96684;-78
2022/04/25 02:32:30;;;;;;;23.27;11.30;;;;;;;;;;5038073;27;97523;-73
2022/04/25 02:34:57;;;;;;;20.25;11.50;;;;;;;;;;5051692;27;95295;-75
2022/04/25 02:37:23;;;;;;;18.48;11.02;;;;;;;;;;5055856;27;96617;-74
2022/04/25 02:39:50;;;;;;;23.98;11.25;;;;;;;;;;5053254;27;96387;-74
2022/04/25 02:42:16;;;;;;;20.65;11.57;;;;;;;;;;5051176;27;96783;-78
2022/04/25 02:44:43;;;;;;;27.92;12.23;;;;;;;;;;5039649;27;99020;-77
2022/04/25 02:47:13;;;;;;;23.02;11.38;;;;;;;;;;5052926;27;95334;-72
2022/04/25 02:49:39;;;;;;;20.98;11.35;;;;;;;;;;5051774;27;96712;-76
2022/04/25 02:52:05;;;;;;;19.55;11.77;;;;;;;;;;5050890;27;97201;-76
2022/04/25 02:54:32;;;;;;;21.85;12.10;;;;;;;;;;5048059;27;95235;-77
2022/04/25 02:57:00;;;;;;;26.55;12.95;;;;;;;;;;5051972;27;97223;-74
2022/04/25 02:59:27;;;;;;;22.88;11.68;;;;;;;;;;5055293;27;97346;-75
2022/04/25 03:01:53;;;;;;;28.95;11.88;;;;;;;;;;5051922;27;96818;-75
2022/04/25 03:04:20;;;;;;;19.45;11.98;;;;;;;;;;5049801;27;96696;-77
2022/04/25 03:06:46;;;;;;;26.70;12.38;;;;;;;;;;5052725;27;95508;-76
2022/04/25 03:09:13;;;;;;;23.70;12.52;;;;;;;;;;5051882;27;97270;-77
2022/04/25 03:11:39;;;;;;;20.20;13.38;;;;;;;;;;5051654;27;97287;-77
2022/04/25 03:14:05;;;;;;;22.08;12.40;;;;;;;;;;5051322;27;95267;-75
2022/04/25 03:16:31;;;;;;;25.30;12.13;;;;;;;;;;5036674;27;97146;-75
2022/04/25 03:18:58;;;;;;;25.02;13.32;;;;;;;;;;5051717;27;97653;-73
2022/04/25 03:21:25;;;;;;;23.30;12.63;;;;;;;;;;5054908;27;95142;-73
2022/04/25 03:23:53;;;;;;;23.52;12.10;;;;;;;;;;5051214;27;98356;-74
2022/04/25 03:26:19;;;;;;;21.20;12.70;;;;;;;;;;5050148;27;96612;-77
2022/04/25 03:28:46;;;;;;;28.35;13.57;;;;;;;;;;5052205;27;96758;-74
2022/04/25 03:31:12;;;;;;;23.20;12.77;;;;;;;;;;5049929;27;97283;-75
2022/04/25 03:33:38;;;;;;;29.17;13.50;;;;;;;;;;5050443;27;95232;-73
2022/04/25 03:36:05;;;;;;;22.23;12.88;;;;;;;;;;5045875;27;96885;-75
2022/04/25 03:38:32;;;;;;;26.40;14.52;;;;;;;;;;5049262;27;96523;-76
2022/04/25 03:40:59;;;;;;;26.98;13.73;;;;;;;;;;5048137;27;95422;-78
2022/04/25 03:43:26;;;;;;;26.77;13.25;;;;;;;;;;5054620;27;96866;-78
2022/04/25 03:45:52;;;;;;;26.83;13.32;;;;;;;;;;5051012;27;96972;-77
2022/04/25 03:48:20;;;;;;;30.95;13.18;;;;;;;;;;5052037;27;95767;-77
2022/04/25 03:50:46;;;;;;;29.80;13.35;;;;;;;;;;5050734;27;97240;-79
2022/04/25 03:53:13;;;;;;;28.30;13.63;;;;;;;;;;5054651;27;95351;-78
2022/04/25 03:58:24;;;;;;;26.90;14.50;;;;;;;;;;5038932;27;97338;-78
2022/04/25 04:00:51;;;;;;;26.02;14.30;;;;;;;;;;5053676;27;95283;-78
2022/04/25 04:03:18;;;;;;;30.08;14.88;;;;;;;;;;5058209;27;96593;-76
2022/04/25 04:05:45;;;;;;;27.17;14.48;;;;;;;;;;5054046;27;95593;-76
2022/04/25 04:08:12;;;;;;;35.90;15.30;;;;;;;;;;5054888;27;96588;-77
2022/04/25 04:10:39;;;;;;;29.13;13.73;;;;;;;;;;5053300;27;98364;-76
2022/04/25 04:13:05;;;;;;;27.67;13.75;;;;;;;;;;5041719;27;96249;-75
2022/04/25 04:15:32;;;;;;;25.00;14.05;;;;;;;;;;5055117;27;96581;-78
2022/04/25 04:17:58;;;;;;;27.63;13.70;;;;;;;;;;5041551;27;96850;-77
2022/04/25 04:20:24;;;;;;;27.05;13.52;;;;;;;;;;5040202;27;95403;-74
2022/04/25 04:22:51;;;;;;;27.92;14.23;;;;;;;;;;5044996;27;98567;-75
2022/04/25 04:25:17;;;;;;;28.10;14.20;;;;;;;;;;5053528;27;97328;-76
2022/04/25 04:27:45;;;;;;;29.98;14.80;;;;;;;;;;5044664;27;96887;-75
2022/04/25 04:30:12;;;;;;;31.40;15.85;;;;;;;;;;5038463;27;97274;-74
2022/04/25 04:32:40;;;;;;;31.83;14.77;;;;;;;;;;5041524;27;95103;-76
2022/04/25 04:35:13;;;;;;;29.90;14.52;;;;;;;;;;5043760;27;97032;-75
2022/04/25 04:37:40;;;;;;;30.00;15.23;;;;;;;;;;5037247;27;97365;-74
2022/04/25 04:42:58;;;;;;;29.38;14.68;;;;;;;;;;5054376;27;95196;-74
2022/04/25 04:45:26;;;;;;;32.75;15.23;;;;;;;;;;5045767;27;96025;-77
2022/04/25 04:47:52;;;;;;;27.45;14.38;;;;;;;;;;5057075;27;95626;-73
2022/04/25 04:50:19;;;;;;;27.83;15.85;;;;;;;;;;5053543;27;97288;-74
